»·PEaware :: DLH251 EDDF-LOWI

DLH251 :: EDDF-LOWI

FLIGHT INFORMATION

Flight Status: Arrived
Operator:
Lufthansa
More flights by this operator :: More flights under this callsign
Pilot: Anonymous 14085 (14085)
Aircraft: AIRBUS A319
(A319)
More flights by this aircraft type
Origin: EDDF Frankfurt/Main
Germany
Destination: LOWI Innsbruck
Austria
More flights between these airports :: More routes between these airports
Route: ANEKI4E ANEKI Y163 NATOR N850 TRA N491 DEGES UN871 GAMSA N871 MADEB MADEB1B
File this flight plan on PilotEdge
Remarks: RMK / SIMBRIEF
Altitude:
(Current/Filed)
27,000ft
Speed:
(Current/Filed)
477kts
Departed: 21-Sep-20 10:02 AM
Arrived: 21-Sep-20 10:48 AM
Distance/Time
Traveled:
200nm/0:46
Distance/Time
To Go:
Arrived

Flight Plot

Page will automatically refresh every two minutes.

Flight plan parsing failed; only flown route is shown


Map Options




Map Legend


Flown Route
Filed Route
Departure Airport
Arrival Airport
Navaid (VOR, NDB)
Fix

Horizontal Profiles

Position Reports

Time Latitude Longitude Heading Altitude Ground
Speed
21-Sep-20 09:35 50.047506 8.568833 294 370ft 0kts
21-Sep-20 09:36 50.047506 8.568833 294 370ft 0kts
21-Sep-20 09:37 50.047506 8.568833 294 370ft 0kts
21-Sep-20 09:38 50.047506 8.568833 294 370ft 0kts
21-Sep-20 09:39 50.047506 8.568833 294 370ft 0kts
21-Sep-20 09:40 50.047506 8.568833 294 370ft 0kts
21-Sep-20 09:41 50.047506 8.568833 294 370ft 0kts
21-Sep-20 09:42 50.047506 8.568833 294 370ft 0kts
21-Sep-20 09:43 50.047506 8.568833 294 370ft 0kts
21-Sep-20 09:44 50.047506 8.568833 294 370ft 0kts
21-Sep-20 09:45 50.047506 8.568833 294 370ft 0kts
21-Sep-20 09:46 50.047506 8.568833 294 370ft 0kts
21-Sep-20 09:47 50.047506 8.568833 294 370ft 0kts
21-Sep-20 09:48 50.047506 8.568833 294 370ft 0kts
21-Sep-20 09:49 50.047506 8.568833 294 370ft 0kts
21-Sep-20 09:51 50.047436 8.569071 294 370ft 2kts
21-Sep-20 09:52 50.047367 8.569868 231 370ft 2kts
21-Sep-20 09:53 50.047531 8.570047 204 370ft 0kts
21-Sep-20 09:54 50.047530 8.570047 204 370ft 0kts
21-Sep-20 09:55 50.045345 8.568512 192 370ft 11kts
21-Sep-20 09:56 50.042334 8.567270 251 370ft 11kts
21-Sep-20 09:57 50.041000 8.561659 251 370ft 16kts
21-Sep-20 09:58 50.039303 8.554564 249 370ft 18kts
21-Sep-20 09:59 50.037422 8.546744 249 370ft 19kts
21-Sep-20 10:00 50.035576 8.538948 250 370ft 15kts
21-Sep-20 10:01 50.033552 8.533415 137 370ft 14kts
21-Sep-20 10:02 50.037261 8.553976 69 371ft 153kts
21-Sep-20 10:03 50.052327 8.624152 70 2757ft 190kts
21-Sep-20 10:04 50.071427 8.714384 79 5413ft 239kts
21-Sep-20 10:05 50.027816 8.766570 203 8706ft 255kts
21-Sep-20 10:06 49.956837 8.731960 192 11016ft 299kts
21-Sep-20 10:06 49.882335 8.709155 175 12441ft 353kts
21-Sep-20 10:08 49.811805 8.834249 106 15840ft 370kts
21-Sep-20 10:09 49.781950 8.989338 107 18481ft 382kts
21-Sep-20 10:09 49.757892 9.114711 105 21783ft 350kts
21-Sep-20 10:10 49.716075 9.241854 131 23000ft 312kts
21-Sep-20 10:12 49.652240 9.353906 131 23039ft 310kts
21-Sep-20 10:12 49.594671 9.435439 147 23051ft 367kts
21-Sep-20 10:13 49.500083 9.521853 148 23049ft 408kts
21-Sep-20 10:14 49.402791 9.610457 148 23049ft 408kts
21-Sep-20 10:15 49.310855 9.711512 136 23044ft 408kts
21-Sep-20 10:16 49.230506 9.834746 135 23043ft 408kts
21-Sep-20 10:17 49.150022 9.957077 135 23039ft 408kts
21-Sep-20 10:18 49.069483 10.078752 135 23029ft 408kts
21-Sep-20 10:19 48.986726 10.196605 137 23033ft 407kts
21-Sep-20 10:20 48.903700 10.313689 137 23052ft 407kts
21-Sep-20 10:21 48.821005 10.431219 134 23066ft 407kts
21-Sep-20 10:22 48.743310 10.555655 133 23068ft 407kts
21-Sep-20 10:23 48.665319 10.680035 134 23061ft 407kts
21-Sep-20 10:24 48.587503 10.803658 134 23054ft 407kts
21-Sep-20 10:25 48.509627 10.928219 133 23054ft 409kts
21-Sep-20 10:26 48.430576 11.052109 134 23054ft 410kts
21-Sep-20 10:27 48.351310 11.175292 134 23054ft 411kts
21-Sep-20 10:28 48.271531 11.298741 135 22752ft 415kts
21-Sep-20 10:29 48.187247 11.414012 138 21748ft 408kts
21-Sep-20 10:30 48.103427 11.526773 138 20745ft 402kts
21-Sep-20 10:31 48.020801 11.637457 137 19704ft 396kts
21-Sep-20 10:32 47.939597 11.746089 138 17977ft 386kts
21-Sep-20 10:33 47.844799 11.797525 182 16061ft 372kts
21-Sep-20 10:34 47.743466 11.790768 182 14215ft 359kts
21-Sep-20 10:35 47.648461 11.817287 159 12434ft 347kts
21-Sep-20 10:36 47.559892 11.867591 159 10782ft 330kts
21-Sep-20 10:37 47.479287 11.912706 159 10174ft 281kts
21-Sep-20 10:38 47.412970 11.903423 233 9697ft 239kts
21-Sep-20 10:39 47.383370 11.839060 234 9579ft 231kts
21-Sep-20 10:40 47.356304 11.751067 247 8489ft 241kts
21-Sep-20 10:41 47.331385 11.660910 247 6951ft 227kts
21-Sep-20 10:42 47.308624 11.579299 246 5454ft 195kts
21-Sep-20 10:43 47.290828 11.515847 247 4140ft 153kts
21-Sep-20 10:44 47.275309 11.460573 247 3300ft 144kts
21-Sep-20 10:45 47.266758 11.403104 260 2529ft 143kts
21-Sep-20 10:46 47.260443 11.346081 260 1910ft 120kts
21-Sep-20 10:47 47.258164 11.338653 125 1911ft 12kts
21-Sep-20 10:48 47.258122 11.344515 80 1911ft 16kts
21-Sep-20 10:49 47.258577 11.350526 198 1911ft 3kts
21-Sep-20 10:50 47.258123 11.350533 169 1911ft 0kts
21-Sep-20 10:51 47.258123 11.350532 169 1911ft 0kts
21-Sep-20 10:52 47.258123 11.350532 169 1911ft 0kts
21-Sep-20 10:53 47.258123 11.350532 169 1911ft 0kts
21-Sep-20 10:54 47.258123 11.350532 169 1911ft 0kts
21-Sep-20 10:55 47.258123 11.350532 169 1911ft 0kts
21-Sep-20 10:56 47.258123 11.350532 169 1911ft 0kts
21-Sep-20 10:57 47.258123 11.350532 169 1911ft 0kts
21-Sep-20 10:58 47.258123 11.350532 169 1911ft 0kts

Navigation Log

Ident Type
Flight plan parsing failed, navigation log unavailable